Предлагаем Вашему вниманию английскую версию страницы: AUTOTAF.ME USSS - aviation weather forecast Ekaterinburg (Kol'tsovo)

AUTOTAF USSS - авиапрогноз Екатеринбург (Кольцово)

Сегодня рассвет 03:22 UTC, восход солнца 04:05 UTC,
местный полдень 08:09 UTC, заход солнца 12:13 UTC,
наступление темноты 12:56 UTC.

Краткий прогноз USSS на 9 часов

AUTOTAF.ME USSS 262000Z 2621/2706 26004MPS 9999 BKN012    
  FM270000 27003MPS 5000 BR BKN012 
  FM270300 26003MPS 3000 BR BKN005 
  FM270600 26003MPS 9999 BKN012

Детальный прогноз USSS на 24 часа

AUTOTAF.ME USSS 262000Z 2621/2721 26004MPS 9999 BKN012 TXM03/2709Z TNM07/2700Z  
  FM270000 27003MPS 5000 BR BKN012 
  FM270300 26003MPS 3000 BR BKN005 
  FM270600 26003MPS 9999 BKN012   
  FM271500 23003MPS 1000 BR BKN003 
  FM271800 22003MPS 3000 BR BKN005

Подробный табличный прогноз

Время (UTC) miniAUTOTAF на 3 ч WX FZLVL
M AGL
ICE TURB Т
(°С)
Тd
(°С)
f(%) QNH
(гПа)
WIND/T
18 25003MPS 9999 BKN012 SFC MOD FL20/FL170 MOD SFC/FL30 -5 -8 83 1025 ...
21 26004MPS 9999 BKN012 SFC MOD FL170/FL180 -6 -8 86 1026 ...
27.01.2021
00 27003MPS 5000 BR BKN012 BR SFC MOD FL20/FL170 MOD SFC/FL30 -7 -9 84 1026 ...
03 26003MPS 3000 BR BKN005 BR SFC MOD FL120/FL130 MOD SFC/FL30 -7 -9 86 1027 ...
06 26003MPS 9999 BKN012 SFC MOD FL40/FL170 -5 -7 83 1027 ...
09 26004MPS 9999 BKN013 SFC MOD FL120/FL150 MOD SFC/FL30 -3 -7 78 1027 ...
12 25003MPS 9999 BKN012 SFC FBL FL20/FL40 MOD SFC/FL30 -4 -7 81 1027 ...
15 23003MPS 1000 BR BKN003 BR SFC MOD FL40/FL50 -4 -7 83 1027 ...
18 22003MPS 3000 BR BKN005 BR SFC FBL FL20/FL30 MOD SFC/FL30 -4 -7 82 1026 ...
21 21003MPS 3000 BR BKN005 BR SFC MOD FL20/FL30 MOD SFC/FL30 -5 -7 85 1025 ...
28.01.2021
00 22004MPS 5000 BR SCT012 BR SFC MOD FL170/FL180 MOD SFC/FL30 -4 -7 81 1024 ...
03 23004MPS 9999 SCT011 SFC MOD FL170/FL180 MOD SFC/FL30 -3 -7 74 1022 ...
06 23005G14MPS 9999 OVC131 SFC MOD FL150/FL160 MOD SFC/FL30 -1 -6 73 1022 ...
09 24005G14MPS 9999 OVC111 SFC MOD FL120/FL130 MOD SFC/FL120 0 -5 70 1021 ...
12 24004MPS 9999 OVC110 SFC FBL FL120/FL170 MOD SFC/FL110 -1 -5 73 1021 ...
15 24003MPS 9999 OVC074 SFC FBL FL90/FL170 MOD SFC/FL30 -1 -5 77 1022 ...


Широта 56.74307°, долгота 60.80363°, высота 234 м абс.
Средняя высота рельефа местности 258 м абс.
Прогнозы обновляются четыре раза в сутки: в 02, 08, 14, 20 ч всемирного времени.


Выбрать прогноз по другой модели Екатеринбург (Кольцово)
Онлайн-сводка гроз по Екатеринбург (Кольцово) (для РФ и ближнего зарубежья)
Карта фактических гроз в окрестностях Екатеринбург (Кольцово)
Динамические прогностические карты (ventusky.com)
Прогностическая карта высоты нижней границы облаков по Екатеринбург (Кольцово) (windy.com)
Выбрать другой город

Прогноз предназначен для личного научно-познавательного использования частными лицами
и не предназначен для принятия важных решений и выполнения реальных полётов воздушных судов

При копировании или ином использовании любых материалов данного сайта ссылка на © meteocenter.asia обязательна.

0.66/1.1